CWAE

Whistler Airport

British Columbia, Canada
METAR CWAE 172300Z 36002KT 15SM SKC 03/M06 A3031 RMK TR CI WND ESTD SLP287
Observed Flight Rules
Nov-17 @ 23:00 UTC (37 minutes ago) Visual Flight Rules
Wind Visibility Clouds
360° at 2 knots 15 miles
  • Clear skies
Temperatures Readings
Current 3°C / 37°F
Dewpoint -6°C / 21°F
Humidity 52%
Altimeter 30.31" Hg
Pressure 1028.7 hPa
Elevation 658
METAR CWAE 172300Z 36002KT 15SM SKC 03/M06 A3031 RMK TR CI WND ESTD SLP287
Observed Flight Rules
Nov-17 @ 23:00 UTC
(37 minutes ago)
VFR
Wind Visibility
360° at 2 knots 15 miles
Clouds
  • Clear skies
Temperature Dewpoint
3°C / 37°F -6°C / 21°F
Humidity Altimeter Pressure
52% 30.31" Hg 1028.7 hPa